createdAt,value
2018-12-07T00:02:13.975Z,10.53
2018-12-07T00:04:50.773Z,11.70
2018-12-07T00:07:28.092Z,10.47
2018-12-07T00:10:04.135Z,11.53
2018-12-07T00:12:42.696Z,10.00
2018-12-07T00:15:20.050Z,11.33
2018-12-07T00:17:58.617Z,13.63
2018-12-07T00:20:36.867Z,12.43
2018-12-07T00:23:13.766Z,14.97
2018-12-07T00:25:51.348Z,11.87
2018-12-07T00:28:28.213Z,11.07
2018-12-07T00:31:06.005Z,12.97
2018-12-07T00:33:42.987Z,12.30
2018-12-07T00:36:19.939Z,10.90
2018-12-07T00:38:57.863Z,14.30
2018-12-07T00:41:35.179Z,11.63
2018-12-07T00:44:13.449Z,11.83
2018-12-07T00:46:51.477Z,12.60
2018-12-07T00:49:30.195Z,12.80
2018-12-07T00:52:07.738Z,12.40
2018-12-07T00:54:46.013Z,11.57
2018-12-07T00:57:24.740Z,12.67
2018-12-07T01:00:02.629Z,13.67
2018-12-07T01:02:40.987Z,13.50
2018-12-07T01:05:18.210Z,13.30
2018-12-07T01:07:55.480Z,15.70
2018-12-07T01:10:32.198Z,12.63
2018-12-07T01:13:09.350Z,12.97
2018-12-07T01:15:46.695Z,12.83
2018-12-07T01:18:23.929Z,12.20
2018-12-07T01:21:00.858Z,11.63
2018-12-07T01:23:38.195Z,14.43
2018-12-07T01:26:16.529Z,14.03
2018-12-07T01:28:54.097Z,13.17
2018-12-07T01:31:31.918Z,13.20
2018-12-07T01:34:08.723Z,14.07
2018-12-07T01:36:45.572Z,12.33
2018-12-07T01:39:24.860Z,15.43
2018-12-07T01:42:01.907Z,15.80
2018-12-07T01:44:40.876Z,14.77
2018-12-07T01:47:17.403Z,27.57
2018-12-07T01:49:56.398Z,31.80
2018-12-07T01:52:34.704Z,23.07
2018-12-07T01:55:13.559Z,19.33
2018-12-07T01:57:52.423Z,18.00
2018-12-07T02:00:29.643Z,20.33
2018-12-07T02:03:07.547Z,18.33
2018-12-07T02:05:44.819Z,15.17
2018-12-07T02:08:22.034Z,16.47
2018-12-07T02:11:03.177Z,15.13
2018-12-07T02:13:40.331Z,16.33
2018-12-07T02:16:19.635Z,16.27
2018-12-07T02:18:58.754Z,14.53
2018-12-07T02:21:36.160Z,16.60
2018-12-07T02:24:22.401Z,15.80
2018-12-07T02:27:00.812Z,18.23
2018-12-07T02:29:48.460Z,14.03
2018-12-07T02:32:35.357Z,13.20
2018-12-07T02:35:14.262Z,15.13
2018-12-07T02:37:54.466Z,14.33
2018-12-07T02:40:33.108Z,15.20
2018-12-07T02:43:10.361Z,16.33
2018-12-07T02:45:52.708Z,14.27
2018-12-07T02:48:31.152Z,11.47
2018-12-07T02:51:07.798Z,11.90
2018-12-07T02:53:45.832Z,10.53
2018-12-07T02:56:23.495Z,11.47
2018-12-07T02:59:01.362Z,10.50
2018-12-07T03:01:39.107Z,10.77
2018-12-07T03:04:18.711Z,16.53
2018-12-07T03:06:54.303Z,33.17
2018-12-07T03:09:31.492Z,12.00
2018-12-07T03:12:07.465Z,34.23
2018-12-07T03:14:43.626Z,14.63
2018-12-07T03:17:26.918Z,17.63
2018-12-07T03:20:05.452Z,11.20
2018-12-07T03:22:44.169Z,11.43
2018-12-07T03:25:22.672Z,11.70
2018-12-07T03:28:03.753Z,12.10
2018-12-07T03:30:41.180Z,11.70
2018-12-07T03:33:18.500Z,11.03
2018-12-07T03:35:55.453Z,10.07
2018-12-07T03:38:33.411Z,22.00
2018-12-07T03:41:12.988Z,10.93
2018-12-07T03:43:50.151Z,12.60
2018-12-07T03:46:28.461Z,11.00
2018-12-07T03:49:09.654Z,14.13
2018-12-07T03:51:48.187Z,12.60
2018-12-07T03:54:26.469Z,11.70
2018-12-07T03:57:03.819Z,11.87
2018-12-07T03:59:43.863Z,16.13
2018-12-07T04:02:23.239Z,38.90
2018-12-07T04:05:01.309Z,13.87
2018-12-07T04:07:47.204Z,13.77
2018-12-07T04:10:27.753Z,33.90
2018-12-07T04:13:04.927Z,21.10
2018-12-07T04:15:46.805Z,15.50
2018-12-07T04:18:30.032Z,19.40
2018-12-07T04:21:13.134Z,16.93
2018-12-07T04:23:54.833Z,32.93
2018-12-07T04:26:41.170Z,41.53
2018-12-07T04:29:25.813Z,33.73
2018-12-07T04:32:02.661Z,23.37
2018-12-07T04:34:47.398Z,26.17
2018-12-07T04:37:24.955Z,43.03
2018-12-07T04:40:04.118Z,50.47
2018-12-07T04:42:44.782Z,75.23
2018-12-07T04:45:25.528Z,80.17
2018-12-07T04:48:04.006Z,98.13
2018-12-07T04:50:41.503Z,56.90
2018-12-07T04:53:18.755Z,117.33
2018-12-07T04:55:55.386Z,19.93
2018-12-07T04:58:32.392Z,28.73
2018-12-07T05:01:08.978Z,19.77
2018-12-07T05:03:46.157Z,17.23
2018-12-07T05:06:24.157Z,15.17
2018-12-07T05:09:01.071Z,21.60
2018-12-07T05:13:07.304Z,16.17
2018-12-07T05:15:44.957Z,16.67
2018-12-07T05:18:21.859Z,19.57
2018-12-07T05:20:59.245Z,15.50
2018-12-07T05:23:44.198Z,21.63
2018-12-07T05:26:21.892Z,24.23
2018-12-07T05:28:58.980Z,22.80
2018-12-07T05:31:38.335Z,17.37
2018-12-07T05:34:14.860Z,14.57
2018-12-07T05:36:52.912Z,13.93
2018-12-07T05:40:52.586Z,15.47
2018-12-07T05:43:29.581Z,15.63
2018-12-07T05:46:05.993Z,15.33
2018-12-07T05:48:42.416Z,19.07
2018-12-07T05:51:19.405Z,17.20
2018-12-07T05:53:55.253Z,20.43
2018-12-07T05:56:32.623Z,15.03
2018-12-07T05:59:10.174Z,15.47
2018-12-07T06:01:47.150Z,19.70
2018-12-07T06:04:24.355Z,13.47
2018-12-07T06:07:02.452Z,13.73
2018-12-07T06:09:45.804Z,15.33
2018-12-07T06:12:23.458Z,12.60
2018-12-07T06:15:00.093Z,11.47
2018-12-07T06:17:37.400Z,12.40
2018-12-07T06:20:15.127Z,15.73
2018-12-07T06:22:53.707Z,25.40
2018-12-07T06:25:29.903Z,16.93
2018-12-07T06:28:09.137Z,15.20
2018-12-07T06:30:47.393Z,13.33
2018-12-07T06:33:27.290Z,12.70
2018-12-07T06:36:04.440Z,12.83
2018-12-07T06:38:42.370Z,13.27
2018-12-07T06:41:18.942Z,13.00
2018-12-07T06:43:56.200Z,13.37
2018-12-07T06:46:35.133Z,13.80
2018-12-07T06:49:16.174Z,13.30
2018-12-07T06:51:52.934Z,12.47
2018-12-07T06:54:30.549Z,12.63
2018-12-07T06:57:07.715Z,12.03
2018-12-07T06:59:48.354Z,12.23
2018-12-07T07:02:26.243Z,11.87
2018-12-07T07:05:04.160Z,12.33
2018-12-07T07:07:42.154Z,21.40
2018-12-07T07:10:21.129Z,14.40
2018-12-07T07:12:59.062Z,13.70
2018-12-07T07:15:36.387Z,17.40
2018-12-07T07:18:16.252Z,22.27
2018-12-07T07:20:53.761Z,16.47
2018-12-07T07:23:32.150Z,13.80
2018-12-07T07:28:24.390Z,14.37
2018-12-07T07:31:20.312Z,30.93
2018-12-07T07:34:11.430Z,20.33
2018-12-07T07:39:49.786Z,14.30
2018-12-07T07:42:46.656Z,14.87
2018-12-07T07:45:24.588Z,14.40
2018-12-07T07:56:37.159Z,14.37
2018-12-07T07:59:14.677Z,18.00
2018-12-07T08:01:52.485Z,14.57
2018-12-07T08:04:32.012Z,13.47
2018-12-07T08:07:13.428Z,12.87
2018-12-07T08:09:50.755Z,17.10
2018-12-07T08:12:29.299Z,13.67
2018-12-07T08:15:06.189Z,12.63
2018-12-07T08:17:43.517Z,12.83
2018-12-07T08:20:20.515Z,17.50
2018-12-07T08:22:57.220Z,19.80
2018-12-07T08:25:35.663Z,18.17
2018-12-07T08:28:13.488Z,16.47
2018-12-07T08:30:52.839Z,20.20
2018-12-07T08:33:30.220Z,26.63
2018-12-07T08:36:09.001Z,17.17
2018-12-07T08:38:46.521Z,30.60
2018-12-07T08:41:27.621Z,14.40
2018-12-07T08:44:04.669Z,15.80
2018-12-07T08:46:42.128Z,18.33
2018-12-07T08:49:24.689Z,16.00
2018-12-07T08:54:46.628Z,19.90
2018-12-07T08:57:25.995Z,21.00
2018-12-07T09:00:05.503Z,16.93
2018-12-07T09:02:43.212Z,17.07
2018-12-07T09:05:23.854Z,15.77
2018-12-07T09:08:02.508Z,15.17
2018-12-07T09:10:40.690Z,17.13
2018-12-07T09:13:18.539Z,16.17
2018-12-07T09:15:56.151Z,20.20
2018-12-07T09:18:36.732Z,17.50
2018-12-07T09:21:22.711Z,19.93
2018-12-07T09:24:08.749Z,27.67
2018-12-07T09:26:46.874Z,19.27
2018-12-07T09:29:25.321Z,17.73
2018-12-07T09:32:02.848Z,18.30
2018-12-07T09:34:44.414Z,25.93
2018-12-07T09:37:23.477Z,18.03
2018-12-07T09:40:02.606Z,39.27
2018-12-07T09:42:41.025Z,20.30
2018-12-07T09:45:19.428Z,16.97
2018-12-07T09:47:58.000Z,17.87
2018-12-07T09:50:37.188Z,18.37
2018-12-07T09:53:16.836Z,17.93
2018-12-07T09:55:55.252Z,20.17
2018-12-07T09:58:33.404Z,18.93
2018-12-07T10:01:11.302Z,19.43
2018-12-07T10:03:49.317Z,22.33
2018-12-07T10:06:26.652Z,18.70
2018-12-07T10:09:06.246Z,18.00
2018-12-07T10:11:43.498Z,21.50
2018-12-07T10:14:20.875Z,18.70
2018-12-07T10:16:59.843Z,18.63
2018-12-07T10:19:39.489Z,19.47
2018-12-07T10:22:18.101Z,25.10
2018-12-07T10:24:56.200Z,33.07
2018-12-07T10:27:33.836Z,23.00
2018-12-07T10:30:10.939Z,21.83
2018-12-07T10:32:48.811Z,26.33
2018-12-07T10:35:25.640Z,39.07
2018-12-07T10:38:03.246Z,24.27
2018-12-07T10:40:44.180Z,28.77
2018-12-07T10:43:21.566Z,28.93
2018-12-07T10:46:00.884Z,30.17
2018-12-07T10:48:39.135Z,25.03
2018-12-07T10:51:17.419Z,31.73
2018-12-07T10:53:55.088Z,54.40
2018-12-07T10:56:33.921Z,38.53
2018-12-07T10:59:17.509Z,23.20
2018-12-07T11:01:58.358Z,41.13
2018-12-07T11:04:43.101Z,41.13
2018-12-07T11:07:23.756Z,30.07
2018-12-07T11:10:04.140Z,22.80
2018-12-07T11:12:46.204Z,23.07
2018-12-07T11:15:29.281Z,30.53
2018-12-07T11:18:15.417Z,29.37
2018-12-07T11:20:58.080Z,26.27
2018-12-07T11:23:39.191Z,18.27
2018-12-07T11:26:25.531Z,26.10
2018-12-07T11:29:07.001Z,48.07
2018-12-07T11:32:48.080Z,34.57
2018-12-07T11:35:30.901Z,29.30
2018-12-07T11:38:13.147Z,24.23
2018-12-07T11:40:52.238Z,26.50
2018-12-07T11:43:34.317Z,28.00
2018-12-07T11:46:12.109Z,20.23
2018-12-07T11:48:51.870Z,19.83
2018-12-07T11:51:33.214Z,19.17
2018-12-07T11:54:11.293Z,16.47
2018-12-07T11:56:48.428Z,19.00
2018-12-07T11:59:32.017Z,17.70
2018-12-07T12:02:18.492Z,19.13
2018-12-07T12:05:00.197Z,18.73
2018-12-07T12:07:51.635Z,19.73
2018-12-07T12:10:32.517Z,16.57
2018-12-07T12:13:13.049Z,22.00
2018-12-07T12:15:57.355Z,27.53
2018-12-07T12:18:37.885Z,33.17
2018-12-07T12:21:17.531Z,23.40
2018-12-07T12:23:58.177Z,21.33
2018-12-07T12:26:41.329Z,26.23
2018-12-07T12:29:19.629Z,18.50
2018-12-07T12:32:00.569Z,21.30
2018-12-07T12:34:41.701Z,26.40
2018-12-07T12:37:30.911Z,21.53
2018-12-07T12:40:14.923Z,21.03
2018-12-07T12:42:54.465Z,16.17
2018-12-07T12:45:40.566Z,62.53
2018-12-07T12:48:21.793Z,18.83
2018-12-07T12:51:03.564Z,15.23
2018-12-07T12:53:49.993Z,13.93
2018-12-07T12:56:30.132Z,15.30
2018-12-07T12:59:10.410Z,13.80
2018-12-07T13:01:50.185Z,12.63
2018-12-07T13:04:30.213Z,13.83
2018-12-07T13:07:09.693Z,15.93
2018-12-07T13:09:51.251Z,13.83
2018-12-07T13:12:33.655Z,12.93
2018-12-07T13:15:16.283Z,14.73
2018-12-07T13:17:55.276Z,16.60
2018-12-07T13:20:35.364Z,15.53
2018-12-07T13:23:16.707Z,19.53
2018-12-07T13:25:58.991Z,17.00
2018-12-07T13:28:38.968Z,15.80
2018-12-07T13:31:26.865Z,19.67
2018-12-07T13:34:06.882Z,17.83
2018-12-07T13:36:45.208Z,18.40
2018-12-07T13:39:23.544Z,15.60
2018-12-07T13:42:10.284Z,16.30
2018-12-07T13:44:50.127Z,17.70
2018-12-07T13:47:30.234Z,15.70
2018-12-07T13:50:15.255Z,16.50
2018-12-07T13:52:56.409Z,24.70
2018-12-07T13:55:37.691Z,18.40
2018-12-07T13:58:20.586Z,27.03
2018-12-07T14:01:02.890Z,17.43
2018-12-07T14:03:43.100Z,18.70
2018-12-07T14:06:25.137Z,15.07
2018-12-07T14:09:12.520Z,15.60
2018-12-07T14:12:03.885Z,14.87
2018-12-07T14:14:46.824Z,16.17
2018-12-07T14:17:28.220Z,15.73
2018-12-07T14:20:10.662Z,15.93
2018-12-07T14:22:58.968Z,15.03
2018-12-07T14:25:45.458Z,14.93
2018-12-07T14:28:27.311Z,17.63
2018-12-07T14:31:08.620Z,17.03
2018-12-07T14:36:47.199Z,20.03
2018-12-07T14:39:27.914Z,15.60
2018-12-07T14:42:07.659Z,16.80
2018-12-07T14:44:48.318Z,25.50
2018-12-07T14:47:28.394Z,26.87
2018-12-07T14:50:10.123Z,15.60
2018-12-07T14:52:49.760Z,17.43
2018-12-07T14:55:33.142Z,15.50
2018-12-07T14:58:18.005Z,15.53
2018-12-07T15:00:58.457Z,15.97
2018-12-07T15:03:40.306Z,16.43
2018-12-07T15:06:22.704Z,17.03
2018-12-07T15:09:02.217Z,17.50
2018-12-07T15:11:45.354Z,17.47
2018-12-07T15:14:33.015Z,19.07
2018-12-07T15:17:16.519Z,19.80
2018-12-07T15:19:55.384Z,26.33
2018-12-07T15:22:40.834Z,22.30
2018-12-07T15:25:20.374Z,19.33
2018-12-07T15:28:02.358Z,20.17
2018-12-07T15:30:47.694Z,17.90
2018-12-07T15:33:31.952Z,20.30
2018-12-07T15:36:13.278Z,20.40
2018-12-07T15:38:59.021Z,19.63
2018-12-07T15:41:42.956Z,19.20
2018-12-07T15:44:22.700Z,17.80
2018-12-07T15:47:12.995Z,18.63
2018-12-07T15:52:36.308Z,19.07
2018-12-07T15:55:15.324Z,19.83
2018-12-07T15:57:56.617Z,20.20
2018-12-07T16:00:36.047Z,21.30
2018-12-07T16:03:15.153Z,21.23
2018-12-07T16:05:58.233Z,21.20
2018-12-07T16:08:44.255Z,21.73
2018-12-07T16:11:32.513Z,24.47
2018-12-07T16:14:11.911Z,24.30
2018-12-07T16:16:53.466Z,24.23
2018-12-07T16:19:32.523Z,27.33
2018-12-07T16:22:17.148Z,26.27
2018-12-07T16:24:57.632Z,24.83
2018-12-07T16:27:37.054Z,25.67
2018-12-07T16:30:17.246Z,25.17
2018-12-07T16:33:04.974Z,26.77
2018-12-07T16:35:43.305Z,24.47
2018-12-07T16:38:24.553Z,24.50
2018-12-07T16:41:04.648Z,24.10
2018-12-07T16:43:43.924Z,24.67
2018-12-07T16:46:26.692Z,25.37
2018-12-07T16:49:05.437Z,24.43
2018-12-07T16:51:48.631Z,22.27
2018-12-07T16:54:27.526Z,21.20
2018-12-07T16:57:10.124Z,22.90
2018-12-07T16:59:53.380Z,23.00
2018-12-07T17:02:32.689Z,25.30
2018-12-07T17:05:14.811Z,23.93
2018-12-07T17:07:55.937Z,24.57
2018-12-07T17:10:35.213Z,26.50
2018-12-07T17:13:14.006Z,27.53
2018-12-07T17:15:52.510Z,26.30
2018-12-07T17:18:33.993Z,26.67
2018-12-07T17:21:11.726Z,26.00
2018-12-07T17:23:51.082Z,24.80
2018-12-07T17:26:31.585Z,24.17
2018-12-07T17:29:10.004Z,24.53
2018-12-07T17:31:47.246Z,25.13
2018-12-07T17:34:27.594Z,24.13
2018-12-07T17:37:09.154Z,25.17
2018-12-07T17:39:52.685Z,25.77
2018-12-07T17:42:30.259Z,23.87
2018-12-07T17:45:07.405Z,24.60
2018-12-07T17:47:45.248Z,23.87
2018-12-07T17:50:25.132Z,24.03
2018-12-07T17:53:05.005Z,23.83
2018-12-07T17:55:42.188Z,23.83
2018-12-07T17:58:19.730Z,24.23
2018-12-07T18:00:57.242Z,25.80
2018-12-07T18:03:35.723Z,23.57
2018-12-07T18:06:13.662Z,23.03
2018-12-07T18:08:52.725Z,25.13
2018-12-07T18:11:29.965Z,25.97
2018-12-07T18:14:07.164Z,24.70
2018-12-07T18:16:44.639Z,21.93
2018-12-07T18:19:23.098Z,22.10
2018-12-07T18:22:01.042Z,22.57
2018-12-07T18:24:38.721Z,22.57
2018-12-07T18:27:19.262Z,22.63
2018-12-07T18:29:56.699Z,24.60
2018-12-07T18:32:41.256Z,23.77
2018-12-07T18:35:19.153Z,23.73
2018-12-07T18:37:56.529Z,23.97
2018-12-07T18:40:34.287Z,24.30
2018-12-07T18:43:11.996Z,23.83
2018-12-07T18:45:50.031Z,22.47
2018-12-07T18:48:28.079Z,23.17
2018-12-07T18:51:05.332Z,23.53
2018-12-07T18:53:42.994Z,24.17
2018-12-07T18:56:22.863Z,25.10
2018-12-07T18:59:00.119Z,23.47
2018-12-07T19:01:37.275Z,24.80
2018-12-07T19:04:15.050Z,24.37
2018-12-07T19:06:52.476Z,24.33
2018-12-07T19:09:30.851Z,26.03
2018-12-07T19:12:08.828Z,25.70
2018-12-07T19:14:46.455Z,23.00
2018-12-07T19:17:25.018Z,22.93
2018-12-07T19:20:02.971Z,23.73
2018-12-07T19:22:39.925Z,22.43
2018-12-07T19:25:19.184Z,22.60
2018-12-07T19:27:56.670Z,23.83
2018-12-07T19:30:33.644Z,23.57
2018-12-07T19:33:11.125Z,24.57
2018-12-07T19:35:48.308Z,23.27
2018-12-07T19:38:29.403Z,23.87
2018-12-07T19:41:09.588Z,23.47
2018-12-07T19:43:49.068Z,23.20
2018-12-07T19:46:26.896Z,22.70
2018-12-07T19:49:05.849Z,24.10
2018-12-07T19:51:43.771Z,24.47
2018-12-07T19:54:21.276Z,22.67
2018-12-07T19:56:58.723Z,24.43
2018-12-07T19:59:36.564Z,22.67
2018-12-07T20:02:13.915Z,22.97
2018-12-07T20:04:52.219Z,22.47
2018-12-07T20:07:29.136Z,22.47
2018-12-07T20:10:08.478Z,22.93
2018-12-07T20:12:51.115Z,22.50
2018-12-07T20:15:29.831Z,23.23
2018-12-07T20:18:07.279Z,22.13
2018-12-07T20:20:47.064Z,22.00
2018-12-07T20:23:25.179Z,22.30
2018-12-07T20:26:03.165Z,22.10
2018-12-07T20:28:41.283Z,22.60
2018-12-07T20:31:19.807Z,23.17
2018-12-07T20:33:58.078Z,21.97
2018-12-07T20:36:35.380Z,23.37
2018-12-07T20:39:15.243Z,22.93
2018-12-07T20:41:54.689Z,24.27
2018-12-07T20:44:31.879Z,23.77
2018-12-07T20:47:09.448Z,23.10
2018-12-07T20:49:47.014Z,25.00
2018-12-07T20:52:26.558Z,23.27
2018-12-07T20:55:04.270Z,23.53
2018-12-07T20:57:41.880Z,24.50
2018-12-07T21:00:20.651Z,25.03
2018-12-07T21:03:00.211Z,23.70
2018-12-07T21:09:35.819Z,28.93
2018-12-07T21:15:32.352Z,24.60
2018-12-07T21:18:11.578Z,22.83
2018-12-07T21:20:49.661Z,23.13
2018-12-07T21:23:28.094Z,22.60
2018-12-07T21:26:07.551Z,22.17
2018-12-07T21:28:45.795Z,23.20
2018-12-07T21:31:24.990Z,24.03
2018-12-07T21:34:14.037Z,24.47
2018-12-07T21:36:50.996Z,23.73
2018-12-07T21:39:46.174Z,22.67
2018-12-07T21:42:23.721Z,23.43
2018-12-07T21:45:01.742Z,25.13
2018-12-07T21:48:10.921Z,25.53
2018-12-07T21:50:51.559Z,24.50
2018-12-07T21:53:29.124Z,24.20
2018-12-07T21:56:06.588Z,23.40
2018-12-07T21:58:42.971Z,24.23
2018-12-07T22:01:19.933Z,23.77
2018-12-07T22:03:58.068Z,23.83
2018-12-07T22:06:37.096Z,23.90
2018-12-07T22:09:15.192Z,25.53
2018-12-07T22:17:52.786Z,27.17
2018-12-07T22:20:31.169Z,25.53
2018-12-07T22:23:08.832Z,25.00
2018-12-07T22:25:46.499Z,24.70
2018-12-07T22:28:23.900Z,25.10
2018-12-07T22:31:02.351Z,26.00
2018-12-07T22:33:40.334Z,25.43
2018-12-07T22:36:18.364Z,25.93
2018-12-07T22:39:00.974Z,23.97
2018-12-07T22:41:39.654Z,24.47
2018-12-07T22:44:17.434Z,25.37
2018-12-07T22:46:55.055Z,25.03
2018-12-07T22:49:31.615Z,25.70
2018-12-07T22:52:09.135Z,24.30
2018-12-07T22:54:46.607Z,26.30
2018-12-07T22:57:24.637Z,25.40
2018-12-07T23:00:05.415Z,26.07
2018-12-07T23:02:43.596Z,24.13
2018-12-07T23:05:21.123Z,24.07
2018-12-07T23:08:00.985Z,24.33
2018-12-07T23:10:39.561Z,24.77
2018-12-07T23:13:16.392Z,24.63
2018-12-07T23:15:54.577Z,24.00
2018-12-07T23:18:31.878Z,21.73
2018-12-07T23:21:08.641Z,21.20
2018-12-07T23:23:46.223Z,20.80
2018-12-07T23:26:24.103Z,20.83
2018-12-07T23:29:01.697Z,21.17
2018-12-07T23:31:38.575Z,19.40
2018-12-07T23:34:15.846Z,18.27
2018-12-07T23:36:53.400Z,17.33
2018-12-07T23:39:29.969Z,15.53
2018-12-07T23:42:08.366Z,14.53
2018-12-07T23:44:44.772Z,15.30
2018-12-07T23:47:21.514Z,13.87
2018-12-07T23:49:59.399Z,13.93
2018-12-07T23:52:36.907Z,14.40
2018-12-07T23:55:14.310Z,16.33
2018-12-07T23:57:52.235Z,14.90
